| time (UTC) | temp F | wind direction | speed MPH | gust MPH | rain 1hr in | rain 24hr in | rain mn in | humidity % | barometer mb |
| 20260904170017 | 84 | 188 | 4.0 | 0.0 | 0.00 | 0.00 | 0.00 | 66 | 1011.0 |
| 20260904164517 | 84 | 140 | 3.0 | 0.0 | 0.00 | 0.00 | 0.00 | 67 | 1011.0 |
| 20260904163014 | 83 | 149 | 4.0 | 0.0 | 0.00 | 0.00 | 0.00 | 68 | 1011.0 |
| 20260904161513 | 82 | 184 | 6.0 | 0.0 | 0.00 | 0.00 | 0.00 | 70 | 1010.9 |
| 20260904160013 | 82 | 181 | 6.0 | 0.0 | 0.00 | 0.00 | 0.00 | 71 | 1010.7 |
| 20260904154522 | 81 | 102 | 4.0 | 0.0 | 0.00 | 0.00 | 0.00 | 71 | 1010.9 |
| 20260904153009 | 80 | 163 | 4.0 | 0.0 | 0.00 | 0.00 | 0.00 | 74 | 1010.7 |
| 20260904151510 | 81 | 192 | 5.0 | 0.0 | 0.00 | 0.00 | 0.00 | 72 | 1010.5 |
| 20260904150002 | 79 | 189 | 4.0 | 0.0 | 0.00 | 0.00 | 0.00 | 78 | 1010.7 |
| 20260904144501 | 78 | 179 | 6.0 | 0.0 | 0.00 | 0.00 | 0.00 | 80 | 1010.7 |
| 20260904143101 | 78 | 161 | 5.0 | 0.0 | 0.00 | 0.00 | 0.00 | 83 | 1010.6 |
| 20260904141559 | 77 | 153 | 5.0 | 0.0 | 0.00 | 0.00 | 0.00 | 84 | 1010.7 |
| 20260904140058 | 76 | 151 | 5.0 | 0.0 | 0.00 | 0.00 | 0.00 | 86 | 1010.6 |
| 20260904134602 | 75 | 181 | 6.0 | 0.0 | 0.00 | 0.00 | 0.00 | 88 | 1010.4 |
| 20260904133102 | 75 | 150 | 5.0 | 0.0 | 0.00 | 0.00 | 0.00 | 88 | 1010.2 |
| 20260904131556 | 75 | 154 | 6.0 | 0.0 | 0.00 | 0.00 | 0.00 | 89 | 1010.0 |
| 20260904130051 | 74 | 155 | 6.0 | 0.0 | 0.00 | 0.00 | 0.00 | 89 | 1009.8 |
| 20260904124551 | 74 | 165 | 5.0 | 0.0 | 0.00 | 0.00 | 0.00 | 90 | 1009.4 |
| 20260904123048 | 74 | 140 | 5.0 | 0.0 | 0.00 | 0.00 | 0.00 | 89 | 1009.2 |
| 20260904121547 | 74 | 168 | 4.0 | 0.0 | 0.00 | 0.00 | 0.00 | 89 | 1009.1 |
| 20260904120055 | 74 | 153 | 3.0 | 0.0 | 0.00 | 0.00 | 0.00 | 89 | 1009.0 |
| 20260904114548 | 74 | 159 | 3.0 | 0.0 | 0.00 | 0.00 | 0.00 | 88 | 1008.8 |
| 20260904113043 | 74 | 183 | 4.0 | 0.0 | 0.00 | 0.00 | 0.00 | 87 | 1008.5 |
| 20260904111540 | 74 | 196 | 6.0 | 0.0 | 0.00 | 0.00 | 0.00 | 87 | 1008.3 |
| 20260904110039 | 74 | 203 | 6.0 | 0.0 | 0.00 | 0.00 | 0.00 | 86 | 1008.3 |
| 20260904104602 | 74 | 180 | 5.0 | 0.0 | 0.00 | 0.00 | 0.00 | 86 | 1008.1 |
| 20260904103039 | 75 | 196 | 5.0 | 0.0 | 0.00 | 0.00 | 0.00 | 85 | 1008.2 |
| 20260904101541 | 75 | 173 | 7.0 | 0.0 | 0.00 | 0.00 | 0.00 | 85 | 1008.1 |
| 20260904100042 | 75 | 189 | 7.0 | 0.0 | 0.00 | 0.00 | 0.00 | 85 | 1008.1 |
| 20260904094549 | 75 | 186 | 7.0 | 0.0 | 0.00 | 0.00 | 0.00 | 86 | 1008.3 |
| 20260904093036 | 75 | 162 | 6.0 | 0.0 | 0.00 | 0.00 | 0.00 | 86 | 1008.3 |
| 20260904091535 | 75 | 184 | 7.0 | 0.0 | 0.00 | 0.00 | 0.00 | 86 | 1008.2 |
| 20260904090031 | 75 | 175 | 6.0 | 0.0 | 0.00 | 0.00 | 0.00 | 86 | 1008.2 |
| 20260904084531 | 75 | 161 | 5.0 | 0.0 | 0.00 | 0.00 | 0.00 | 86 | 1008.0 |
| 20260904083030 | 75 | 165 | 7.0 | 0.0 | 0.00 | 0.00 | 0.00 | 86 | 1008.1 |
| 20260904081528 | 75 | 163 | 5.0 | 0.0 | 0.00 | 0.00 | 0.00 | 86 | 1008.0 |
| 20260904080030 | 75 | 150 | 6.0 | 0.0 | 0.00 | 0.00 | 0.00 | 85 | 1008.2 |
| 20260904074526 | 75 | 171 | 6.0 | 0.0 | 0.00 | 0.00 | 0.00 | 84 | 1008.2 |
| 20260904073031 | 75 | 182 | 7.0 | 0.0 | 0.00 | 0.00 | 0.00 | 83 | 1008.3 |
| 20260904071521 | 75 | 169 | 7.0 | 0.0 | 0.00 | 0.00 | 0.00 | 83 | 1008.3 |
| 20260904070035 | 76 | 186 | 8.0 | 0.0 | 0.00 | 0.00 | 0.00 | 82 | 1008.4 |
| 20260904064516 | 76 | 173 | 7.0 | 0.0 | 0.00 | 0.00 | 0.00 | 82 | 1008.7 |
| 20260904063015 | 76 | 174 | 8.0 | 0.0 | 0.00 | 0.00 | 0.00 | 81 | 1008.7 |
| 20260904061513 | 76 | 170 | 8.0 | 0.0 | 0.00 | 0.00 | 0.00 | 81 | 1008.8 |
| 20260904060009 | 77 | 167 | 7.0 | 0.0 | 0.00 | 0.00 | 0.00 | 80 | 1008.9 |
| 20260904054506 | 77 | 148 | 8.0 | 0.0 | 0.00 | 0.00 | 0.00 | 79 | 1008.8 |
| 20260904053006 | 77 | 139 | 9.0 | 0.0 | 0.00 | 0.00 | 0.00 | 79 | 1008.6 |
| 20260904051611 | 78 | 176 | 10.0 | 0.0 | 0.00 | 0.00 | 0.00 | 77 | 1008.4 |
| 20260904050056 | 79 | 165 | 7.0 | 0.0 | 0.00 | 0.00 | 0.00 | 73 | 1008.4 |
| 20260904044604 | 79 | 153 | 6.0 | 0.0 | 0.00 | 0.00 | 0.00 | 68 | 1008.8 |
| 20260904043102 | 80 | 159 | 5.0 | 0.0 | 0.00 | 0.00 | 0.00 | 67 | 1008.6 |
| 20260904041557 | 80 | 163 | 6.0 | 0.0 | 0.00 | 0.00 | 0.00 | 66 | 1008.2 |
| 20260904040054 | 81 | 159 | 6.0 | 0.0 | 0.00 | 0.00 | 0.00 | 65 | 1008.2 |
| 20260904034554 | 81 | 175 | 5.0 | 0.0 | 0.00 | 0.00 | 0.00 | 65 | 1008.6 |
| 20260904033104 | 81 | 146 | 4.0 | 0.0 | 0.00 | 0.00 | 0.00 | 64 | 1008.6 |
| 20260904031553 | 81 | 105 | 3.0 | 0.0 | 0.00 | 0.00 | 0.00 | 64 | 1008.3 |
| 20260904030052 | 82 | 113 | 4.0 | 0.0 | 0.00 | 0.00 | 0.00 | 63 | 1008.2 |
| 20260904024602 | 82 | 87 | 4.0 | 0.0 | 0.00 | 0.00 | 0.00 | 62 | 1008.2 |
| 20260904023100 | 82 | 157 | 4.0 | 0.0 | 0.00 | 0.00 | 0.00 | 61 | 1007.9 |
| 20260904021550 | 83 | 108 | 3.0 | 0.0 | 0.00 | 0.00 | 0.00 | 62 | 1007.7 |
| 20260904020051 | 83 | 96 | 3.0 | 0.0 | 0.00 | 0.00 | 0.00 | 62 | 1007.2 |
| 20260904014603 | 84 | 92 | 4.0 | 0.0 | 0.00 | 0.00 | 0.00 | 60 | 1007.2 |
| 20260904013050 | 85 | 128 | 3.0 | 0.0 | 0.00 | 0.00 | 0.00 | 58 | 1006.9 |
| 20260904011550 | 87 | 146 | 3.0 | 0.0 | 0.00 | 0.00 | 0.00 | 55 | 1006.7 |
| 20260904010050 | 88 | 115 | 3.0 | 0.0 | 0.00 | 0.00 | 0.00 | 52 | 1006.5 |
| 20260904004549 | 89 | 124 | 4.0 | 0.0 | 0.00 | 0.00 | 0.00 | 50 | 1006.6 |
| 20260904003050 | 90 | 134 | 2.0 | 0.0 | 0.00 | 0.00 | 0.00 | 49 | 1006.1 |
| 20260904001554 | 92 | 118 | 3.0 | 0.0 | 0.00 | 0.00 | 0.00 | 46 | 1005.8 |
| 20260904000110 | 92 | 132 | 3.0 | 0.0 | 0.00 | 0.00 | 0.00 | 44 | 1005.8 |
| 20260903234547 | 93 | 116 | 2.0 | 0.0 | 0.00 | 0.00 | 0.00 | 43 | 1005.9 |
| 20260903233109 | 94 | 91 | 2.0 | 0.0 | 0.00 | 0.00 | 0.00 | 44 | 1005.9 |
| 20260903231548 | 94 | 91 | 2.0 | 0.0 | 0.00 | 0.00 | 0.00 | 42 | 1005.9 |
| 20260903230105 | 95 | 115 | 4.0 | 0.0 | 0.00 | 0.00 | 0.00 | 41 | 1005.5 |
| 20260903224559 | 96 | 102 | 5.0 | 0.0 | 0.00 | 0.00 | 0.00 | 41 | 1005.5 |
| 20260903223111 | 96 | 174 | 3.0 | 0.0 | 0.00 | 0.00 | 0.00 | 41 | 1005.3 |
| 20260903221544 | 95 | 120 | 4.0 | 0.0 | 0.00 | 0.00 | 0.00 | 42 | 1005.6 |
| 20260903220042 | 92 | 133 | 1.0 | 0.0 | 0.00 | 0.00 | 0.00 | 45 | 1005.8 |
| 20260903214548 | 93 | 174 | 3.0 | 0.0 | 0.00 | 0.00 | 0.00 | 45 | 1005.8 |
| 20260903213053 | 93 | 72 | 2.0 | 0.0 | 0.00 | 0.00 | 0.00 | 43 | 1005.9 |
| 20260903211543 | 96 | 102 | 3.0 | 0.0 | 0.00 | 0.00 | 0.00 | 39 | 1005.9 |
| 20260903210059 | 98 | 135 | 3.0 | 0.0 | 0.00 | 0.00 | 0.00 | 40 | 1005.8 |
| 20260903204541 | 96 | 144 | 3.0 | 0.0 | 0.00 | 0.00 | 0.00 | 43 | 1006.2 |
| 20260903203037 | 96 | 165 | 3.0 | 0.0 | 0.00 | 0.00 | 0.00 | 42 | 1006.3 |
| 20260903201535 | 97 | 73 | 4.0 | 0.0 | 0.00 | 0.00 | 0.00 | 39 | 1006.3 |
| 20260903200034 | 97 | 244 | 4.0 | 0.0 | 0.00 | 0.00 | 0.00 | 39 | 1006.4 |
| 20260903194541 | 96 | 219 | 4.0 | 0.0 | 0.00 | 0.00 | 0.00 | 39 | 1006.6 |
| 20260903193031 | 96 | 213 | 5.0 | 0.0 | 0.00 | 0.00 | 0.00 | 40 | 1007.1 |
| 20260903191529 | 96 | 208 | 4.0 | 0.0 | 0.00 | 0.00 | 0.00 | 40 | 1007.1 |
| 20260903190028 | 95 | 196 | 7.0 | 0.0 | 0.00 | 0.00 | 0.00 | 41 | 1007.7 |
| 20260903184524 | 94 | 221 | 7.0 | 0.0 | 0.00 | 0.00 | 0.00 | 41 | 1007.9 |
| 20260903183021 | 94 | 132 | 7.0 | 0.0 | 0.00 | 0.00 | 0.00 | 42 | 1008.1 |
| 20260903181519 | 93 | 240 | 7.0 | 0.0 | 0.00 | 0.00 | 0.00 | 43 | 1008.3 |
| 20260903180018 | 92 | 214 | 5.0 | 0.0 | 0.00 | 0.00 | 0.00 | 45 | 1008.7 |
| 20260903174515 | 91 | 186 | 5.0 | 0.0 | 0.00 | 0.00 | 0.00 | 47 | 1008.7 |
| 20260903173013 | 90 | 215 | 6.0 | 0.0 | 0.00 | 0.00 | 0.00 | 52 | 1009.0 |
| 20260903171510 | 90 | 161 | 6.0 | 0.0 | 0.00 | 0.00 | 0.00 | 51 | 1009.3 |